CheckWX is a tool to help pilots better visualize weather data.  It is not intended as a substitute for an official pre-flight weather briefing.

08:10:42 UTC

KMFE METAR
Mc Allen Miller International Airport
Mc Allen, Texas, USA
Current

18 mins ago

KMFE 220753Z AUTO 04004KT 3SM BR OVC004 18/17 A2986 RMK AO2 SLP109 T01780172
Observed
Feb-22 @ 07:53 UTC
Wind
  • 040° at 4 KTS
Visibility
3 SM
Flight Rules
LIFR
Conditions
Mist
Cloud Levels
  • Overcast at 400' AGL
Temperature
18°C / 64°F
Dewpoint
17°C / 63°F
Humidity
94%
Altimeter
29.86" Hg
Pressure
1010.9 hPa
Previous

1 hour ago

KMFE 220653Z AUTO 02005KT 4SM BR BKN004 OVC017 18/17 A2987 RMK AO2 SLP112 T01780172
Observed
Feb-22 @ 06:53 UTC
Wind
  • 020° at 5 KTS
Visibility
4 SM
Flight Rules
LIFR
Conditions
Mist
Cloud Levels
  • Broken at 400' AGL
  • Overcast at 1,700' AGL
Temperature
18°C / 64°F
Dewpoint
17°C / 63°F
Humidity
94%
Altimeter
29.87" Hg
Pressure
1011.2 hPa
Previous

2 hours ago

KMFE 220632Z AUTO 04003KT 5SM BR OVC004 18/17 A2988 RMK AO2 T01780167
Observed
Feb-22 @ 06:32 UTC
Wind
  • 040° at 3 KTS
Visibility
5 SM
Flight Rules
LIFR
Conditions
Mist
Cloud Levels
  • Overcast at 400' AGL
Temperature
18°C / 64°F
Dewpoint
17°C / 63°F
Humidity
94%
Altimeter
29.88" Hg
Pressure
1011.82 hPa